createdAt,value
2019-05-03T00:00:19.064Z,14.25
2019-05-03T00:01:17.916Z,14.35
2019-05-03T00:02:16.498Z,14.39
2019-05-03T00:03:15.048Z,14.42
2019-05-03T00:04:13.652Z,14.47
2019-05-03T00:05:12.543Z,14.35
2019-05-03T00:06:12.052Z,14.51
2019-05-03T00:07:09.437Z,14.52
2019-05-03T00:08:07.999Z,14.4
2019-05-03T00:09:06.532Z,14.55
2019-05-03T00:10:05.289Z,14.64
2019-05-03T00:11:03.997Z,14.58
2019-05-03T00:12:02.743Z,14.57
2019-05-03T00:13:01.958Z,14.57
2019-05-03T00:14:01.380Z,14.62
2019-05-03T00:14:58.499Z,14.58
2019-05-03T00:15:57.093Z,14.45
2019-05-03T00:16:55.803Z,14.39
2019-05-03T00:17:54.334Z,14.42
2019-05-03T00:18:52.909Z,14.42
2019-05-03T00:19:52.723Z,14.33
2019-05-03T00:20:50.386Z,14.37
2019-05-03T00:21:48.927Z,14.35
2019-05-03T00:22:47.537Z,14.36
2019-05-03T00:23:46.185Z,14.28
2019-05-03T00:24:44.738Z,14.39
2019-05-03T00:25:43.502Z,14.37
2019-05-03T00:26:42.347Z,14.25
2019-05-03T00:27:42.612Z,14.29
2019-05-03T00:28:39.437Z,14.24
2019-05-03T00:29:38.124Z,14.35
2019-05-03T00:30:36.727Z,14.36
2019-05-03T00:31:35.279Z,14.28
2019-05-03T00:32:33.823Z,14.28
2019-05-03T00:33:32.446Z,14.17
2019-05-03T00:34:32.368Z,14.22
2019-05-03T00:35:29.625Z,14.15
2019-05-03T00:36:28.238Z,14.04
2019-05-03T00:37:26.769Z,14.15
2019-05-03T00:38:25.312Z,14.18
2019-05-03T00:39:23.966Z,14.27
2019-05-03T00:40:22.622Z,14.33
2019-05-03T00:41:21.566Z,14.29
2019-05-03T00:42:19.887Z,14.28
2019-05-03T00:43:18.417Z,14.24
2019-05-03T00:44:17.006Z,14.28
2019-05-03T00:45:15.527Z,14.37
2019-05-03T00:46:14.094Z,14.27
2019-05-03T00:47:12.669Z,14.32
2019-05-03T00:48:12.384Z,14.25
2019-05-03T00:49:11.937Z,14.25
2019-05-03T00:50:08.799Z,14.25
2019-05-03T00:51:07.479Z,14.28
2019-05-03T00:52:06.085Z,14.29
2019-05-03T00:53:04.631Z,14.27
2019-05-03T00:54:03.195Z,14.25
2019-05-03T00:55:02.310Z,14.28
2019-05-03T00:56:01.693Z,14.4
2019-05-03T00:56:58.963Z,14.36
2019-05-03T00:57:57.948Z,14.36
2019-05-03T00:58:56.547Z,14.37
2019-05-03T00:59:55.088Z,14.5
2019-05-03T01:00:53.753Z,14.5
2019-05-03T01:01:52.329Z,14.45
2019-05-03T01:02:51.668Z,14.5
2019-05-03T01:03:49.586Z,14.51
2019-05-03T01:04:48.300Z,14.5
2019-05-03T01:05:46.893Z,14.46
2019-05-03T01:06:45.643Z,14.45
2019-05-03T01:07:44.240Z,14.47
2019-05-03T01:08:42.793Z,14.58
2019-05-03T01:09:42.387Z,14.61
2019-05-03T01:10:39.910Z,14.45
2019-05-03T01:11:38.474Z,14.46
2019-05-03T01:12:37.109Z,14.54
2019-05-03T01:13:35.929Z,14.4
2019-05-03T01:14:34.493Z,14.33
2019-05-03T01:15:33.279Z,14.35
2019-05-03T01:16:31.945Z,14.36
2019-05-03T01:17:31.680Z,14.36
2019-05-03T01:18:29.020Z,14.39
2019-05-03T01:19:27.567Z,14.4
2019-05-03T01:20:26.090Z,14.25
2019-05-03T01:21:24.663Z,14.24
2019-05-03T01:22:23.379Z,14.36
2019-05-03T01:23:22.050Z,14.43
2019-05-03T01:24:21.715Z,14.51
2019-05-03T01:25:29.023Z,14.45
2019-05-03T01:26:17.925Z,14.46
2019-05-03T01:27:16.491Z,14.45
2019-05-03T01:28:15.045Z,14.43
2019-05-03T01:29:13.700Z,14.37
2019-05-03T01:30:12.259Z,14.36
2019-05-03T01:31:11.938Z,14.5
2019-05-03T01:32:11.471Z,14.46
2019-05-03T01:33:08.281Z,14.51
2019-05-03T01:34:06.848Z,14.54
2019-05-03T01:35:51.875Z,14.62
2019-05-03T01:36:48.943Z,14.61
2019-05-03T01:37:47.575Z,14.65
2019-05-03T01:38:46.175Z,14.8
2019-05-03T01:39:44.743Z,14.7
2019-05-03T01:40:43.297Z,14.73
2019-05-03T01:41:41.817Z,14.58
2019-05-03T01:42:42.463Z,14.62
2019-05-03T01:43:38.937Z,14.61
2019-05-03T01:44:37.619Z,14.43
2019-05-03T01:45:36.263Z,14.4
2019-05-03T01:46:34.862Z,14.47
2019-05-03T01:47:33.668Z,14.55
2019-05-03T01:48:32.300Z,14.43
2019-05-03T01:49:32.050Z,14.42
2019-05-03T01:50:29.388Z,14.37
2019-05-03T01:51:27.936Z,14.36
2019-05-03T01:52:26.482Z,14.27
2019-05-03T01:53:25.016Z,14.28
2019-05-03T01:54:23.680Z,14.36
2019-05-03T01:55:22.636Z,14.37
2019-05-03T01:56:22.274Z,14.35
2019-05-03T01:57:19.393Z,14.42
2019-05-03T01:58:18.130Z,14.54
2019-05-03T01:59:16.705Z,14.55
2019-05-03T02:00:15.335Z,14.54
2019-05-03T02:01:14.075Z,14.51
2019-05-03T02:02:12.627Z,14.61
2019-05-03T02:03:12.348Z,14.75
2019-05-03T02:04:09.703Z,14.68
2019-05-03T02:05:08.282Z,14.73
2019-05-03T02:06:06.802Z,14.64
2019-05-03T02:07:05.474Z,14.58
2019-05-03T02:08:04.177Z,14.58
2019-05-03T02:09:02.729Z,14.64
2019-05-03T02:10:02.768Z,14.72
2019-05-03T02:11:02.076Z,14.77
2019-05-03T02:11:58.655Z,14.7
2019-05-03T02:12:57.242Z,14.7
2019-05-03T02:13:55.818Z,14.73
2019-05-03T02:14:54.355Z,14.8
2019-05-03T02:15:52.917Z,14.77
2019-05-03T02:16:52.271Z,14.88
2019-05-03T02:17:51.905Z,14.78
2019-05-03T02:18:48.635Z,14.75
2019-05-03T02:19:47.191Z,14.84
2019-05-03T02:20:45.950Z,14.78
2019-05-03T02:21:44.487Z,14.83
2019-05-03T02:22:43.200Z,14.75
2019-05-03T02:23:42.501Z,14.8
2019-05-03T02:24:42.187Z,14.75
2019-05-03T02:25:39.010Z,14.78
2019-05-03T02:26:37.578Z,14.73
2019-05-03T02:27:36.137Z,14.77
2019-05-03T02:28:34.688Z,14.69
2019-05-03T02:29:33.305Z,14.81
2019-05-03T02:30:33.127Z,14.77
2019-05-03T02:31:32.723Z,14.64
2019-05-03T02:32:29.366Z,14.69
2019-05-03T02:33:27.975Z,14.62
2019-05-03T02:34:26.524Z,14.64
2019-05-03T02:35:25.078Z,14.7
2019-05-03T02:36:23.630Z,14.69
2019-05-03T02:37:22.512Z,14.58
2019-05-03T02:38:23.096Z,14.58
2019-05-03T02:39:19.278Z,14.62
2019-05-03T02:40:20.517Z,14.77
2019-05-03T02:41:16.555Z,14.8
2019-05-03T02:42:16.038Z,14.78
2019-05-03T02:43:16.360Z,14.81
2019-05-03T02:44:12.547Z,14.84
2019-05-03T02:45:11.112Z,14.81
2019-05-03T02:46:09.767Z,14.65
2019-05-03T02:47:08.338Z,14.73
2019-05-03T02:48:06.903Z,14.73
2019-05-03T02:49:06.365Z,14.83
2019-05-03T02:50:05.808Z,14.84
2019-05-03T02:51:02.591Z,14.91
2019-05-03T02:52:01.240Z,14.77
2019-05-03T02:52:59.864Z,14.88
2019-05-03T02:53:58.486Z,14.83
2019-05-03T02:54:57.179Z,14.77
2019-05-03T02:55:56.177Z,14.77
2019-05-03T02:56:55.936Z,14.78
2019-05-03T02:57:52.922Z,14.83
2019-05-03T02:58:51.476Z,14.78
2019-05-03T02:59:50.071Z,14.8
2019-05-03T03:00:48.726Z,14.73
2019-05-03T03:01:47.447Z,14.62
2019-05-03T03:02:46.176Z,14.64
2019-05-03T03:03:45.662Z,14.65
2019-05-03T03:04:45.360Z,14.81
2019-05-03T03:05:42.039Z,14.75
2019-05-03T03:06:40.586Z,14.75
2019-05-03T03:07:39.149Z,14.77
2019-05-03T03:08:37.688Z,14.75
2019-05-03T03:09:36.337Z,14.69
2019-05-03T03:10:35.557Z,14.68
2019-05-03T03:11:35.535Z,14.5
2019-05-03T03:12:35.305Z,14.52
2019-05-03T03:13:30.827Z,14.45
2019-05-03T03:14:29.553Z,14.55
2019-05-03T03:15:28.250Z,14.37
2019-05-03T03:16:26.796Z,14.36
2019-05-03T03:17:25.656Z,14.27
2019-05-03T03:18:25.471Z,14.27
2019-05-03T03:19:22.457Z,14.33
2019-05-03T03:20:21.086Z,14.28
2019-05-03T03:21:19.752Z,14.24
2019-05-03T03:22:18.362Z,14.28
2019-05-03T03:23:17.983Z,14.25
2019-05-03T03:24:16.747Z,14.24
2019-05-03T03:25:17.180Z,14.24
2019-05-03T03:26:15.445Z,14.27
2019-05-03T03:27:11.417Z,14.27
2019-05-03T03:28:09.991Z,14.27
2019-05-03T03:29:08.553Z,14.18
2019-05-03T03:30:07.765Z,14.29
2019-05-03T03:31:08.236Z,14.32
2019-05-03T03:32:08.892Z,14.2
2019-05-03T03:33:02.941Z,14.28
2019-05-03T03:34:01.826Z,14.36
2019-05-03T03:35:02.908Z,14.37
2019-05-03T03:36:29.061Z,14.36
2019-05-03T03:37:03.644Z,14.42
2019-05-03T03:37:56.259Z,14.42
2019-05-03T03:38:55.374Z,14.45
2019-05-03T03:39:55.606Z,14.51
2019-05-03T03:40:55.404Z,14.45
2019-05-03T03:41:50.753Z,14.58
2019-05-03T03:42:49.374Z,14.55
2019-05-03T03:43:47.965Z,14.55
2019-05-03T03:44:46.545Z,14.6
2019-05-03T03:45:45.566Z,14.6
2019-05-03T03:46:45.381Z,14.58
2019-05-03T03:47:42.318Z,14.62
2019-05-03T03:48:40.854Z,14.5
2019-05-03T03:49:39.411Z,14.47
2019-05-03T03:50:37.981Z,14.42
2019-05-03T03:51:36.551Z,14.42
2019-05-03T03:52:35.985Z,14.4
2019-05-03T03:53:35.559Z,14.25
2019-05-03T03:54:35.232Z,14.43
2019-05-03T03:55:30.983Z,14.45
2019-05-03T03:56:29.690Z,14.42
2019-05-03T03:57:28.263Z,14.43
2019-05-03T03:58:27.283Z,14.43
2019-05-03T03:59:26.474Z,14.43
2019-05-03T04:00:25.745Z,14.47
2019-05-03T04:01:22.486Z,14.29
2019-05-03T04:02:21.051Z,14.27
2019-05-03T04:03:19.572Z,14.24
2019-05-03T04:04:18.139Z,14.25
2019-05-03T04:05:16.642Z,14.28
2019-05-03T04:06:15.460Z,14.22
2019-05-03T04:07:15.707Z,14.36
2019-05-03T04:08:12.295Z,14.37
2019-05-03T04:09:10.853Z,14.39
2019-05-03T04:10:09.525Z,14.32
2019-05-03T04:11:08.144Z,14.29
2019-05-03T04:12:06.738Z,14.22
2019-05-03T04:13:05.566Z,14.25
2019-05-03T04:14:05.365Z,14.39
2019-05-03T04:15:05.426Z,14.47
2019-05-03T04:16:01.307Z,14.5
2019-05-03T04:16:59.893Z,14.5
2019-05-03T04:17:58.461Z,14.58
2019-05-03T04:18:57.051Z,14.54
2019-05-03T04:19:55.964Z,14.68
2019-05-03T04:20:55.903Z,14.57
2019-05-03T04:21:52.902Z,14.61
2019-05-03T04:22:51.720Z,14.5
2019-05-03T04:23:50.268Z,14.43
2019-05-03T04:24:48.823Z,14.43
2019-05-03T04:25:47.378Z,14.46
2019-05-03T04:26:45.971Z,14.54
2019-05-03T04:27:45.529Z,14.54
2019-05-03T04:28:45.296Z,14.64
2019-05-03T04:29:42.153Z,14.62
2019-05-03T04:30:40.738Z,14.57
2019-05-03T04:31:39.334Z,14.68
2019-05-03T04:32:38.096Z,14.62
2019-05-03T04:33:36.628Z,14.65
2019-05-03T04:34:35.818Z,14.68
2019-05-03T04:35:36.257Z,14.65
2019-05-03T04:36:35.594Z,14.61
2019-05-03T04:37:31.227Z,14.62
2019-05-03T04:38:29.945Z,14.77
2019-05-03T04:39:28.519Z,14.78
2019-05-03T04:40:27.078Z,14.78
2019-05-03T04:41:26.794Z,14.86
2019-05-03T04:42:25.320Z,14.84
2019-05-03T04:43:22.846Z,14.86
2019-05-03T04:44:21.614Z,14.88
2019-05-03T04:45:20.167Z,14.95
2019-05-03T04:46:18.722Z,14.86
2019-05-03T04:47:17.335Z,14.83
2019-05-03T04:48:16.290Z,15.06
2019-05-03T04:49:15.117Z,14.99
2019-05-03T04:50:16.056Z,14.94
2019-05-03T04:51:11.830Z,14.95
2019-05-03T04:52:10.384Z,14.92
2019-05-03T04:53:08.962Z,14.81
2019-05-03T04:54:07.488Z,14.86
2019-05-03T04:55:06.628Z,14.78
2019-05-03T04:56:05.691Z,14.7
2019-05-03T04:57:06.352Z,14.51
2019-05-03T04:58:01.929Z,14.51
2019-05-03T04:59:00.460Z,14.37
2019-05-03T04:59:58.997Z,14.47
2019-05-03T05:00:57.795Z,14.45
2019-05-03T05:01:56.374Z,14.45
2019-05-03T05:02:55.378Z,14.43
2019-05-03T05:03:55.666Z,14.37
2019-05-03T05:04:52.073Z,14.25
2019-05-03T05:05:50.609Z,14.35
2019-05-03T05:06:49.153Z,14.43
2019-05-03T05:07:47.710Z,14.42
2019-05-03T05:08:46.258Z,14.4
2019-05-03T05:09:45.541Z,14.25
2019-05-03T05:10:45.383Z,14.35
2019-05-03T05:11:42.012Z,14.5
2019-05-03T05:12:40.556Z,14.5
2019-05-03T05:13:39.149Z,14.42
2019-05-03T05:14:37.968Z,14.47
2019-05-03T05:15:36.529Z,14.35
2019-05-03T05:16:35.672Z,14.42
2019-05-03T05:17:35.452Z,14.39
2019-05-03T05:18:35.124Z,14.55
2019-05-03T05:19:30.887Z,14.64
2019-05-03T05:20:29.453Z,14.69
2019-05-03T05:21:28.011Z,14.64
2019-05-03T05:22:26.568Z,14.6
2019-05-03T05:23:25.262Z,14.6
2019-05-03T05:24:25.523Z,14.58
2019-05-03T05:25:22.518Z,14.6
2019-05-03T05:26:21.292Z,14.6
2019-05-03T05:27:19.926Z,14.51
2019-05-03T05:28:18.477Z,14.55
2019-05-03T05:29:17.047Z,14.61
2019-05-03T05:30:15.899Z,14.47
2019-05-03T05:31:15.116Z,14.5
2019-05-03T05:32:14.430Z,14.43
2019-05-03T05:33:11.459Z,14.45
2019-05-03T05:34:10.204Z,14.37
2019-05-03T05:35:08.749Z,14.37
2019-05-03T05:36:07.468Z,14.37
2019-05-03T05:38:51.798Z,14.5
2019-05-03T05:39:50.433Z,14.39
2019-05-03T05:42:35.131Z,14.51
2019-05-03T05:43:33.372Z,14.36
2019-05-03T05:44:31.906Z,14.43
2019-05-03T05:45:30.514Z,14.42
2019-05-03T05:46:29.111Z,14.4
2019-05-03T05:47:27.828Z,14.33
2019-05-03T05:48:26.451Z,14.37
2019-05-03T05:49:25.945Z,14.28
2019-05-03T05:50:25.334Z,14.36
2019-05-03T05:51:22.303Z,14.4
2019-05-03T05:52:20.849Z,14.27
2019-05-03T05:53:19.516Z,14.25
2019-05-03T05:54:18.076Z,14.17
2019-05-03T05:55:16.784Z,13.99
2019-05-03T05:56:15.808Z,14.14
2019-05-03T05:57:14.969Z,14.25
2019-05-03T05:58:12.734Z,14.27
2019-05-03T06:00:55.027Z,14.27
2019-05-03T06:01:51.579Z,14.36
2019-05-03T06:02:50.129Z,14.28
2019-05-03T06:06:29.607Z,14.55
2019-05-03T06:07:28.304Z,14.35
2019-05-03T06:09:51.103Z,14.61
2019-05-03T06:10:49.890Z,14.73
2019-05-03T06:11:48.484Z,14.69
2019-05-03T06:12:47.177Z,14.47
2019-05-03T06:14:56.737Z,14.68
2019-05-03T06:15:55.398Z,14.65
2019-05-03T06:16:55.355Z,14.81
2019-05-03T06:17:52.625Z,14.94
2019-05-03T06:18:51.232Z,14.86
2019-05-03T06:19:49.927Z,14.95
2019-05-03T06:20:48.450Z,14.91
2019-05-03T06:21:47.920Z,14.99
2019-05-03T06:22:45.760Z,15.11
2019-05-03T06:23:45.086Z,14.95
2019-05-03T06:24:42.876Z,14.99
2019-05-03T06:25:41.643Z,14.94
2019-05-03T06:26:40.358Z,14.86
2019-05-03T06:27:38.941Z,14.88
2019-05-03T06:28:37.694Z,14.91
2019-05-03T06:29:36.265Z,14.99
2019-05-03T06:30:35.119Z,14.92
2019-05-03T06:31:34.369Z,15.02
2019-05-03T06:32:31.945Z,15.03
2019-05-03T06:33:30.510Z,15.07
2019-05-03T06:34:29.017Z,14.98
2019-05-03T06:35:27.559Z,15.01
2019-05-03T06:36:26.126Z,14.91
2019-05-03T06:37:25.091Z,14.89
2019-05-03T06:38:24.379Z,14.89
2019-05-03T06:39:22.062Z,14.92
2019-05-03T06:40:20.623Z,14.98
2019-05-03T06:41:19.299Z,14.86
2019-05-03T06:42:19.381Z,14.88
2019-05-03T06:43:16.453Z,15.02
2019-05-03T06:44:19.128Z,15.09
2019-05-03T06:45:15.043Z,15.19
2019-05-03T06:46:12.118Z,15.31
2019-05-03T06:47:10.714Z,15.53
2019-05-03T06:48:09.214Z,15.69
2019-05-03T06:49:10.031Z,15.76
2019-05-03T06:50:06.345Z,15.86
2019-05-03T06:51:09.252Z,15.92
2019-05-03T06:52:05.784Z,16.2
2019-05-03T06:53:05.300Z,16.27
2019-05-03T06:54:00.681Z,16.38
2019-05-03T06:55:00.235Z,16.49
2019-05-03T06:55:58.000Z,16.52
2019-05-03T06:57:00.062Z,16.71
2019-05-03T06:57:55.200Z,16.75
2019-05-03T06:58:55.127Z,16.6
2019-05-03T06:59:52.403Z,16.64
2019-05-03T07:00:50.937Z,16.78
2019-05-03T07:01:49.510Z,16.78
2019-05-03T07:02:48.076Z,16.79
2019-05-03T07:03:46.620Z,16.79
2019-05-03T07:04:45.398Z,16.79
2019-05-03T07:05:44.508Z,16.7
2019-05-03T07:06:44.834Z,16.91
2019-05-03T07:07:41.400Z,16.82
2019-05-03T07:08:40.043Z,16.96
2019-05-03T07:09:38.600Z,17.11
2019-05-03T07:10:37.286Z,17.11
2019-05-03T07:11:35.836Z,17.11
2019-05-03T07:12:35.384Z,17.23
2019-05-03T07:13:34.528Z,16.82
2019-05-03T07:14:31.538Z,16.81
2019-05-03T07:15:30.207Z,16.66
2019-05-03T07:16:28.777Z,16.88
2019-05-03T07:17:27.434Z,16.94
2019-05-03T07:18:26.190Z,16.76
2019-05-03T07:19:25.037Z,17
2019-05-03T07:20:25.273Z,17.11
2019-05-03T07:21:22.014Z,17.11
2019-05-03T07:22:20.599Z,17.07
2019-05-03T07:23:19.166Z,17.25
2019-05-03T07:24:17.759Z,17.21
2019-05-03T07:25:16.355Z,17.37
2019-05-03T07:26:15.193Z,17.49
2019-05-03T07:27:15.690Z,17.52
2019-05-03T07:28:12.280Z,17.4
2019-05-03T07:29:10.850Z,17.44
2019-05-03T07:30:09.408Z,17.38
2019-05-03T07:31:07.926Z,17.34
2019-05-03T07:32:06.480Z,17.06
2019-05-03T07:33:05.009Z,16.91
2019-05-03T07:34:05.171Z,17.04
2019-05-03T07:35:04.327Z,17.07
2019-05-03T07:36:00.963Z,17.3
2019-05-03T07:36:59.512Z,17.22
2019-05-03T07:37:58.114Z,17.11
2019-05-03T07:38:56.678Z,17.11
2019-05-03T07:39:55.636Z,17.11
2019-05-03T07:40:54.925Z,17.22
2019-05-03T07:41:52.508Z,17.51
2019-05-03T07:42:51.044Z,17.54
2019-05-03T07:43:49.680Z,17.64
2019-05-03T07:44:48.288Z,17.84
2019-05-03T07:45:46.854Z,18.02
2019-05-03T07:46:45.531Z,18.08
2019-05-03T07:47:45.192Z,18.17
2019-05-03T07:48:42.835Z,18.27
2019-05-03T07:49:41.513Z,18.54
2019-05-03T07:50:40.086Z,18.52
2019-05-03T07:51:38.666Z,18.66
2019-05-03T07:52:37.263Z,18.62
2019-05-03T07:53:35.880Z,18.94
2019-05-03T07:54:34.944Z,18.92
2019-05-03T07:55:33.062Z,18.72
2019-05-03T07:56:31.687Z,18.82
2019-05-03T07:57:30.342Z,18.73
2019-05-03T07:58:28.899Z,18.72
2019-05-03T07:59:27.686Z,18.48
2019-05-03T08:00:26.404Z,18.3
2019-05-03T08:01:25.213Z,18.12
2019-05-03T08:02:25.188Z,17.87
2019-05-03T08:03:21.968Z,17.72
2019-05-03T08:04:20.479Z,17.71
2019-05-03T08:05:19.053Z,17.64
2019-05-03T08:06:17.604Z,17.62
2019-05-03T08:07:22.171Z,17.41
2019-05-03T08:08:15.016Z,17.46
2019-05-03T08:09:15.157Z,17.64
2019-05-03T08:10:12.149Z,17.77
2019-05-03T08:11:10.792Z,17.96
2019-05-03T08:12:09.478Z,17.71
2019-05-03T08:13:08.102Z,17.68
2019-05-03T08:14:06.667Z,17.64
2019-05-03T08:15:05.385Z,17.79
2019-05-03T08:16:05.836Z,17.82
2019-05-03T08:17:02.600Z,17.72
2019-05-03T08:18:01.198Z,17.84
2019-05-03T08:18:59.958Z,17.9
2019-05-03T08:19:58.541Z,17.89
2019-05-03T08:20:57.111Z,18.02
2019-05-03T08:21:56.610Z,17.89
2019-05-03T08:22:54.673Z,17.9
2019-05-03T08:23:52.847Z,17.77
2019-05-03T08:24:51.388Z,17.78
2019-05-03T08:25:50.909Z,17.7
2019-05-03T08:26:48.659Z,17.56
2019-05-03T08:27:47.220Z,17.54
2019-05-03T08:28:46.084Z,17.68
2019-05-03T08:29:45.346Z,17.56
2019-05-03T08:30:44.493Z,17.51
2019-05-03T08:31:41.907Z,17.66
2019-05-03T08:32:40.475Z,17.72
2019-05-03T08:33:39.063Z,17.68
2019-05-03T08:34:37.850Z,17.55
2019-05-03T08:35:36.487Z,17.44
2019-05-03T08:36:35.249Z,17.54
2019-05-03T08:37:34.894Z,17.62
2019-05-03T08:38:34.437Z,17.7
2019-05-03T08:39:31.067Z,17.78
2019-05-03T08:40:29.660Z,17.92
2019-05-03T08:41:28.207Z,17.75
2019-05-03T08:42:26.779Z,17.63
2019-05-03T08:43:25.619Z,17.68
2019-05-03T08:44:25.014Z,17.7
2019-05-03T08:45:25.449Z,17.89
2019-05-03T08:46:22.264Z,17.68
2019-05-03T08:47:20.840Z,17.59
2019-05-03T08:48:19.499Z,17.55
2019-05-03T08:49:18.121Z,17.43
2019-05-03T08:50:21.310Z,17.49
2019-05-03T08:51:15.431Z,17.41
2019-05-03T08:52:15.672Z,17.48
2019-05-03T08:53:15.045Z,17.52
2019-05-03T08:54:11.215Z,17.63
2019-05-03T08:55:10.008Z,17.68
2019-05-03T08:56:08.531Z,17.74
2019-05-03T08:57:07.081Z,17.87
2019-05-03T08:58:05.771Z,17.99
2019-05-03T08:59:04.741Z,17.9
2019-05-03T09:00:02.886Z,17.96
2019-05-03T09:01:01.456Z,17.86
2019-05-03T09:02:03.425Z,18.03
2019-05-03T09:02:58.638Z,17.77
2019-05-03T09:03:57.203Z,17.75
2019-05-03T09:04:55.983Z,17.92
2019-05-03T09:05:56.400Z,17.99
2019-05-03T09:06:55.011Z,17.84
2019-05-03T09:07:51.869Z,17.78
2019-05-03T09:08:50.493Z,17.84
2019-05-03T09:09:49.014Z,17.75
2019-05-03T09:10:47.556Z,18.05
2019-05-03T09:11:46.106Z,17.97
2019-05-03T09:12:44.945Z,17.9
2019-05-03T09:13:44.976Z,17.92
2019-05-03T09:14:45.648Z,17.81
2019-05-03T09:15:40.632Z,18.05
2019-05-03T09:16:39.315Z,18.11
2019-05-03T09:17:37.982Z,18.12
2019-05-03T09:18:36.536Z,18.05
2019-05-03T09:19:35.094Z,18.02
2019-05-03T09:20:35.543Z,17.99
2019-05-03T09:21:32.226Z,17.81
2019-05-03T09:22:30.769Z,17.99
2019-05-03T09:23:29.304Z,17.99
2019-05-03T09:24:27.857Z,18
2019-05-03T09:25:26.432Z,18.07
2019-05-03T09:26:29.041Z,17.96
2019-05-03T09:27:24.688Z,18.02
2019-05-03T09:28:22.314Z,17.77
2019-05-03T09:29:20.826Z,17.71
2019-05-03T09:30:19.561Z,17.64
2019-05-03T09:31:18.362Z,17.56
2019-05-03T09:32:16.930Z,17.44
2019-05-03T09:33:15.530Z,17.51
2019-05-03T09:34:14.742Z,17.46
2019-05-03T09:35:26.652Z,17.59
2019-05-03T09:36:11.280Z,17.63
2019-05-03T09:37:10.121Z,17.56
2019-05-03T09:38:08.629Z,17.43
2019-05-03T09:39:07.246Z,17.21
2019-05-03T09:40:05.871Z,17.12
2019-05-03T09:42:50.218Z,17.16
2019-05-03T09:43:48.773Z,17.06
2019-05-03T10:11:25.717Z,17.89
2019-05-03T10:12:25.451Z,17.89
2019-05-03T10:13:24.283Z,17.97
2019-05-03T10:14:21.696Z,18.17
2019-05-03T10:15:20.397Z,18.1
2019-05-03T10:16:18.946Z,18.08
2019-05-03T10:17:17.573Z,18.15
2019-05-03T10:18:16.300Z,17.82
2019-05-03T10:20:56.496Z,17.43
2019-05-03T10:21:55.193Z,17.46
2019-05-03T10:22:54.499Z,17.55
2019-05-03T10:23:54.658Z,17.46
2019-05-03T10:24:51.230Z,17.44
2019-05-03T10:25:49.951Z,17.62
2019-05-03T10:26:48.624Z,17.58
2019-05-03T10:27:47.212Z,17.66
2019-05-03T10:28:45.842Z,17.71
2019-05-03T10:29:44.732Z,17.72
2019-05-03T10:30:44.864Z,17.72
2019-05-03T10:31:41.531Z,17.86
2019-05-03T10:32:40.182Z,18.11
2019-05-03T10:33:38.712Z,18.41
2019-05-03T10:34:37.376Z,18.54
2019-05-03T10:35:36.075Z,18.72
2019-05-03T10:36:35.609Z,18.94
2019-05-03T10:39:56.146Z,19.25
2019-05-03T10:40:55.042Z,19.13
2019-05-03T10:41:54.954Z,19.13
2019-05-03T10:42:52.061Z,19.16
2019-05-03T10:43:50.618Z,19.29
2019-05-03T10:44:49.203Z,19.19
2019-05-03T10:45:47.924Z,19.13
2019-05-03T10:46:46.483Z,19.07
2019-05-03T10:47:45.637Z,18.99
2019-05-03T10:48:45.056Z,19.06
2019-05-03T10:49:42.249Z,18.94
2019-05-03T10:50:40.819Z,18.98
2019-05-03T10:51:39.382Z,19.06
2019-05-03T10:52:38.312Z,19.04
2019-05-03T10:53:36.526Z,19
2019-05-03T10:54:35.754Z,19
2019-05-03T10:55:35.738Z,18.99
2019-05-03T10:56:32.491Z,18.98
2019-05-03T10:57:31.060Z,18.88
2019-05-03T10:58:29.675Z,18.85
2019-05-03T10:59:28.235Z,18.88
2019-05-03T11:00:49.189Z,18.91
2019-05-03T11:01:25.314Z,19
2019-05-03T11:02:25.247Z,18.84
2019-05-03T11:03:22.573Z,18.81
2019-05-03T11:04:21.066Z,18.94
2019-05-03T11:05:19.743Z,18.82
2019-05-03T11:06:18.296Z,18.72
2019-05-03T11:07:16.846Z,18.66
2019-05-03T11:08:15.450Z,18.65
2019-05-03T11:09:15.214Z,18.57
2019-05-03T11:10:14.568Z,18.58
2019-05-03T11:11:11.226Z,18.52
2019-05-03T11:12:09.866Z,18.52
2019-05-03T11:13:08.487Z,18.55
2019-05-03T11:14:07.030Z,18.42
2019-05-03T11:15:05.674Z,18.36
2019-05-03T11:16:05.570Z,18.39
2019-05-03T11:17:02.757Z,18.3
2019-05-03T11:18:01.300Z,18.39
2019-05-03T11:19:00.057Z,18.33
2019-05-03T11:19:58.685Z,18.5
2019-05-03T11:20:57.278Z,18.52
2019-05-03T11:21:56.083Z,18.54
2019-05-03T11:22:54.837Z,18.6
2019-05-03T11:23:54.489Z,18.69
2019-05-03T11:24:51.836Z,18.58
2019-05-03T11:25:50.377Z,18.5
2019-05-03T11:26:48.941Z,18.52
2019-05-03T11:27:47.811Z,18.58
2019-05-03T11:28:48.357Z,18.6
2019-05-03T11:29:46.818Z,18.45
2019-05-03T11:31:55.053Z,18.42
2019-05-03T11:32:55.584Z,18.58
2019-05-03T11:33:52.814Z,18.63
2019-05-03T11:34:52.311Z,18.78
2019-05-03T11:35:50.889Z,18.75
2019-05-03T11:36:49.643Z,18.73
2019-05-03T11:37:48.217Z,18.52
2019-05-03T11:38:46.791Z,18.75
2019-05-03T11:39:45.377Z,19.06
2019-05-03T11:40:45.481Z,19.07
2019-05-03T11:41:42.583Z,19.02
2019-05-03T11:42:41.151Z,19.19
2019-05-03T11:43:39.702Z,19.26
2019-05-03T11:44:38.362Z,19.26
2019-05-03T11:45:36.886Z,19.06
2019-05-03T11:46:35.553Z,19.08
2019-05-03T11:47:34.775Z,19.08
2019-05-03T11:48:34.667Z,19
2019-05-03T11:49:31.434Z,19.02
2019-05-03T11:50:29.968Z,19.13
2019-05-03T11:51:28.497Z,19.18
2019-05-03T11:52:27.064Z,19.21
2019-05-03T11:53:25.758Z,19.36
2019-05-03T11:54:24.946Z,19.36
2019-05-03T11:55:22.953Z,19.4
2019-05-03T11:56:22.393Z,19.18
2019-05-03T11:57:20.381Z,19.37
2019-05-03T11:58:18.939Z,19.39
2019-05-03T12:01:11.506Z,19.06
2019-05-03T12:03:07.744Z,18.92
2019-05-03T12:04:06.023Z,18.85
2019-05-03T12:05:05.024Z,18.66
2019-05-03T12:06:04.928Z,18.73
2019-05-03T12:07:01.634Z,18.82
2019-05-03T12:08:00.234Z,18.7
2019-05-03T12:08:58.837Z,18.87
2019-05-03T12:09:57.543Z,18.88
2019-05-03T12:11:00.690Z,18.99
2019-05-03T12:11:55.302Z,18.91
2019-05-03T12:12:55.292Z,18.87
2019-05-03T12:14:02.261Z,18.82
2019-05-03T12:16:21.213Z,18.69
2019-05-03T12:17:19.975Z,18.84
2019-05-03T12:18:12.445Z,18.82
2019-05-03T12:19:16.697Z,18.87
2019-05-03T12:20:10.724Z,18.94
2019-05-03T12:22:50.709Z,19.22
2019-05-03T12:23:49.495Z,19.28
2019-05-03T12:24:47.856Z,19.1
2019-05-03T12:25:46.799Z,19.07
2019-05-03T12:26:46.964Z,19.14
2019-05-03T12:27:44.471Z,19.28
2019-05-03T12:28:41.948Z,19.19
2019-05-03T12:29:40.452Z,19.21
2019-05-03T12:32:05.101Z,18.69
2019-05-03T12:33:01.704Z,18.87
2019-05-03T12:34:00.371Z,18.98
2019-05-03T12:37:40.063Z,18.55
2019-05-03T12:38:38.731Z,18.42
2019-05-03T12:39:37.274Z,18.41
2019-05-03T12:40:35.861Z,18.52
2019-05-03T12:41:34.399Z,18.55
2019-05-03T12:42:35.232Z,18.54
2019-05-03T12:43:31.559Z,18.6
2019-05-03T12:44:30.242Z,18.52
2019-05-03T12:45:28.841Z,18.62
2019-05-03T12:46:27.607Z,18.47
2019-05-03T12:47:26.321Z,18.51
2019-05-03T12:48:24.887Z,18.52
2019-05-03T12:49:24.901Z,18.55
2019-05-03T12:50:21.977Z,18.55
2019-05-03T12:53:04.473Z,18.54
2019-05-03T12:54:00.968Z,18.45
2019-05-03T12:54:59.815Z,18.5
2019-05-03T12:55:58.404Z,18.5
2019-05-03T12:56:56.947Z,18.52
2019-05-03T12:57:55.821Z,18.5
2019-05-03T12:58:55.120Z,18.54
2019-05-03T12:59:52.705Z,18.52
2019-05-03T13:00:51.283Z,18.47
2019-05-03T13:01:50.019Z,18.44
2019-05-03T13:02:48.610Z,18.51
2019-05-03T13:03:47.249Z,18.47
2019-05-03T13:21:29.031Z,18.14
2019-05-03T13:22:27.679Z,18.1
2019-05-03T13:23:26.439Z,17.93
2019-05-03T13:24:25.972Z,18.02
2019-05-03T13:25:25.763Z,17.87
2019-05-03T13:26:22.332Z,17.87
2019-05-03T13:27:20.917Z,17.99
2019-05-03T13:28:19.580Z,17.96
2019-05-03T13:29:18.274Z,17.92
2019-05-03T13:30:16.917Z,17.96
2019-05-03T13:31:16.125Z,18
2019-05-03T13:32:14.166Z,17.64
2019-05-03T13:33:14.968Z,17.62
2019-05-03T13:34:11.306Z,17.62
2019-05-03T13:35:09.909Z,17.56
2019-05-03T13:36:08.469Z,17.44
2019-05-03T13:37:07.037Z,17.54
2019-05-03T13:38:05.561Z,17.46
2019-05-03T13:39:13.156Z,17.46
2019-05-03T13:40:02.921Z,17.21
2019-05-03T13:41:01.439Z,17.44
2019-05-03T13:42:00.261Z,17.34
2019-05-03T13:43:03.442Z,17.49
2019-05-03T13:43:57.361Z,17.37
2019-05-03T13:44:56.083Z,17.33
2019-05-03T13:45:55.608Z,17.16
2019-05-03T13:46:54.694Z,17.11
2019-05-03T13:47:51.905Z,17.12
2019-05-03T13:48:50.578Z,17.28
2019-05-03T13:49:49.155Z,17.49
2019-05-03T13:50:47.852Z,17.41